createdAt,value
2023-02-24T00:00:00.605Z,0
2023-02-24T00:05:00.444Z,0
2023-02-24T00:10:00.627Z,0
2023-02-24T00:15:00.439Z,0
2023-02-24T00:20:00.344Z,0
2023-02-24T00:25:00.350Z,0
2023-02-24T00:30:00.394Z,0
2023-02-24T00:35:00.477Z,0
2023-02-24T00:40:00.413Z,0
2023-02-24T00:45:00.418Z,0
2023-02-24T00:50:00.280Z,0
2023-02-24T00:55:00.352Z,0
2023-02-24T01:00:00.374Z,0
2023-02-24T01:05:00.451Z,0
2023-02-24T01:10:00.334Z,0
2023-02-24T01:15:00.427Z,0
2023-02-24T01:20:00.473Z,0
2023-02-24T01:25:00.539Z,0
2023-02-24T01:30:00.638Z,0
2023-02-24T01:35:00.610Z,0
2023-02-24T01:40:00.337Z,0
2023-02-24T01:45:00.365Z,0
2023-02-24T01:50:00.647Z,0
2023-02-24T01:55:00.260Z,0
2023-02-24T02:00:00.171Z,0
2023-02-24T02:05:00.345Z,0
2023-02-24T02:10:00.249Z,0
2023-02-24T02:15:00.364Z,0
2023-02-24T02:20:00.447Z,0
2023-02-24T02:25:00.011Z,0
2023-02-24T02:30:00.343Z,0
2023-02-24T02:35:00.397Z,0
2023-02-24T02:40:00.127Z,0
2023-02-24T02:45:02.905Z,0
2023-02-24T02:50:00.247Z,0
2023-02-24T02:55:00.140Z,0
2023-02-24T03:00:00.367Z,0
2023-02-24T03:05:01.293Z,0
2023-02-24T03:09:59.990Z,0
2023-02-24T03:15:00.405Z,0
2023-02-24T03:20:04.142Z,0
2023-02-24T03:25:00.456Z,0
2023-02-24T03:30:00.317Z,0
2023-02-24T03:35:08.652Z,0
2023-02-24T03:40:01.310Z,0
2023-02-24T03:45:00.153Z,0
2023-02-24T03:50:00.405Z,0
2023-02-24T03:55:04.972Z,0
2023-02-24T04:00:00.161Z,0
2023-02-24T04:05:00.412Z,0
2023-02-24T04:09:59.994Z,0
2023-02-24T04:15:00.305Z,0
2023-02-24T04:20:02.190Z,0
2023-02-24T04:24:59.970Z,0
2023-02-24T04:30:00.314Z,0
2023-02-24T04:34:59.978Z,0
2023-02-24T04:40:00.401Z,0
2023-02-24T04:45:00.254Z,0
2023-02-24T04:50:00.019Z,0
2023-02-24T04:54:59.906Z,0
2023-02-24T04:59:59.970Z,0
2023-02-24T05:04:59.963Z,0
2023-02-24T05:10:00.048Z,0
2023-02-24T05:15:00.147Z,0
2023-02-24T05:20:00.356Z,0
2023-02-24T05:25:00.175Z,0
2023-02-24T05:30:00.340Z,0
2023-02-24T05:35:00.140Z,0
2023-02-24T05:39:59.851Z,0
2023-02-24T05:45:00.152Z,0
2023-02-24T05:50:00.143Z,0
2023-02-24T05:55:00.308Z,0
2023-02-24T06:00:00.267Z,0
2023-02-24T06:05:00.045Z,0
2023-02-24T06:09:59.904Z,0
2023-02-24T06:15:00.419Z,0
2023-02-24T06:20:00.164Z,0
2023-02-24T06:25:00.152Z,0
2023-02-24T06:30:00.132Z,0
2023-02-24T06:35:00.132Z,0
2023-02-24T06:39:59.909Z,0
2023-02-24T06:44:59.928Z,0.4
2023-02-24T06:50:00.010Z,0.8
2023-02-24T06:55:00.336Z,1.4
2023-02-24T07:00:00.705Z,1.8
2023-02-24T07:05:00.146Z,2.5
2023-02-24T07:10:00.345Z,4
2023-02-24T07:15:00.144Z,5.6
2023-02-24T07:20:00.099Z,8.3
2023-02-24T07:24:59.861Z,11.4
2023-02-24T07:30:00.111Z,13.8
2023-02-24T07:35:00.210Z,17.5
2023-02-24T07:39:59.721Z,21.7
2023-02-24T07:44:59.820Z,23.9
2023-02-24T07:49:59.845Z,24.8
2023-02-24T07:55:00.321Z,25.6
2023-02-24T08:00:00.014Z,25.5
2023-02-24T08:04:59.847Z,25
2023-02-24T08:09:59.831Z,25
2023-02-24T08:15:00.505Z,24.9
2023-02-24T08:19:59.861Z,30.4
2023-02-24T08:25:00.171Z,37.1
2023-02-24T08:30:00.430Z,40.3
2023-02-24T08:35:00.616Z,42
2023-02-24T08:39:59.981Z,38.8
2023-02-24T08:45:00.418Z,35.4
2023-02-24T08:49:59.756Z,32.9
2023-02-24T08:54:59.675Z,24.6
2023-02-24T08:59:59.838Z,21.1
2023-02-24T09:05:01.547Z,25.5
2023-02-24T09:09:59.905Z,35
2023-02-24T09:14:59.981Z,36.4
2023-02-24T09:19:59.941Z,31.1
2023-02-24T09:25:01.018Z,31.8
2023-02-24T09:29:59.854Z,36.6
2023-02-24T09:34:59.820Z,49.1
2023-02-24T09:39:59.883Z,42.7
2023-02-24T09:44:59.823Z,42.9
2023-02-24T09:50:04.620Z,40.4
2023-02-24T09:54:59.844Z,38.6
2023-02-24T09:59:59.898Z,41.1
2023-02-24T10:05:01.330Z,41.7
2023-02-24T10:09:59.538Z,42.8
2023-02-24T10:15:03.297Z,41.9
2023-02-24T10:20:05.451Z,40.8
2023-02-24T10:25:02.210Z,34.1
2023-02-24T10:29:59.810Z,31.5
2023-02-24T10:35:00.022Z,29.7
2023-02-24T10:39:59.697Z,30.6
2023-02-24T10:45:02.261Z,28.4
2023-02-24T10:49:59.707Z,26.3
2023-02-24T10:54:59.671Z,29
2023-02-24T10:59:59.948Z,40.1
2023-02-24T11:05:01.221Z,44.5
2023-02-24T11:09:59.767Z,42.4
2023-02-24T11:14:59.757Z,44.8
2023-02-24T11:20:03.751Z,42.8
2023-02-24T11:25:01.703Z,29.2
2023-02-24T11:29:59.712Z,21.1
2023-02-24T11:34:59.730Z,16.2
2023-02-24T11:39:59.740Z,19.7
2023-02-24T11:44:59.592Z,44.3
2023-02-24T11:50:05.358Z,73.1
2023-02-24T11:54:59.778Z,65.2
2023-02-24T11:59:59.962Z,49.9
2023-02-24T12:04:59.869Z,58.3
2023-02-24T12:10:10.658Z,80.1
2023-02-24T12:15:02.330Z,115.1
2023-02-24T12:19:59.743Z,133.4
2023-02-24T12:24:59.827Z,145.1
2023-02-24T12:30:04.310Z,207.1
2023-02-24T12:35:03.962Z,215.1
2023-02-24T12:39:59.676Z,115.8
2023-02-24T12:44:59.572Z,238
2023-02-24T12:49:59.568Z,163
2023-02-24T12:55:05.808Z,231.9
2023-02-24T12:59:59.638Z,230.1
2023-02-24T13:04:59.577Z,121.3
2023-02-24T13:09:59.485Z,90.6
2023-02-24T13:14:59.758Z,99.7
2023-02-24T13:19:59.561Z,85.2
2023-02-24T13:25:09.154Z,118.3
2023-02-24T13:29:59.621Z,154.3
2023-02-24T13:34:59.719Z,159.1
2023-02-24T13:39:59.530Z,136
2023-02-24T13:45:02.672Z,115.4
2023-02-24T13:49:59.491Z,132.5
2023-02-24T13:54:59.551Z,96.1
2023-02-24T13:59:59.607Z,72.3
2023-02-24T14:05:06.983Z,84.3
2023-02-24T14:10:02.388Z,97
2023-02-24T14:15:00.559Z,102.7
2023-02-24T14:19:59.495Z,129.1
2023-02-24T14:24:59.710Z,125.9
2023-02-24T14:29:59.481Z,107.5
2023-02-24T14:34:59.772Z,121
2023-02-24T14:39:59.407Z,120.7
2023-02-24T14:44:59.607Z,120.6
2023-02-24T14:49:59.373Z,92.3
2023-02-24T14:54:59.435Z,61.4
2023-02-24T14:59:59.403Z,69.3
2023-02-24T15:04:59.812Z,83.8
2023-02-24T15:09:59.590Z,65.6
2023-02-24T15:14:59.406Z,64.5
2023-02-24T15:19:59.365Z,53.6
2023-02-24T15:24:59.492Z,78.5
2023-02-24T15:29:59.702Z,44.6
2023-02-24T15:35:00.316Z,29.9
2023-02-24T15:39:59.399Z,42.3
2023-02-24T15:45:01.005Z,36.2
2023-02-24T15:49:59.604Z,43.1
2023-02-24T15:54:59.534Z,46.3
2023-02-24T15:59:59.427Z,28.6
2023-02-24T16:04:59.371Z,16.4
2023-02-24T16:09:59.275Z,19.3
2023-02-24T16:14:59.382Z,19.3
2023-02-24T16:19:59.520Z,16.4
2023-02-24T16:24:59.324Z,15.1
2023-02-24T16:29:59.591Z,17.3
2023-02-24T16:34:59.578Z,16.2
2023-02-24T16:39:59.589Z,16.2
2023-02-24T16:44:59.546Z,11.3
2023-02-24T16:49:59.410Z,8.5
2023-02-24T16:54:59.602Z,6.7
2023-02-24T16:59:59.513Z,5.3
2023-02-24T17:04:59.720Z,3.9
2023-02-24T17:09:59.436Z,2.6
2023-02-24T17:14:59.298Z,1.4
2023-02-24T17:19:59.312Z,0.5
2023-02-24T17:24:59.591Z,0.2
2023-02-24T17:29:59.533Z,0.1
2023-02-24T17:34:59.395Z,0
2023-02-24T17:39:59.481Z,0
2023-02-24T17:44:59.421Z,0
2023-02-24T17:49:59.268Z,0
2023-02-24T17:54:59.270Z,0
2023-02-24T17:59:59.858Z,0
2023-02-24T18:04:59.551Z,0
2023-02-24T18:09:59.598Z,0
2023-02-24T18:15:07.821Z,0
2023-02-24T18:19:59.466Z,0
2023-02-24T18:24:59.404Z,0
2023-02-24T18:29:59.416Z,0
2023-02-24T18:34:59.703Z,0
2023-02-24T18:39:59.862Z,0
2023-02-24T18:44:59.323Z,0
2023-02-24T18:49:59.422Z,0
2023-02-24T18:54:59.133Z,0
2023-02-24T19:00:01.454Z,0
2023-02-24T19:05:00.569Z,0
2023-02-24T19:10:00.559Z,0
2023-02-24T19:15:00.570Z,0
2023-02-24T19:20:00.669Z,0
2023-02-24T19:25:00.529Z,0
2023-02-24T19:30:00.898Z,0
2023-02-24T19:35:00.496Z,0
2023-02-24T19:40:00.512Z,0
2023-02-24T19:45:00.381Z,0
2023-02-24T19:50:00.824Z,0
2023-02-24T19:55:00.459Z,0
2023-02-24T20:00:00.901Z,0
2023-02-24T20:05:00.598Z,0
2023-02-24T20:10:00.493Z,0
2023-02-24T20:15:00.645Z,0
2023-02-24T20:20:00.501Z,0
2023-02-24T20:25:00.627Z,0
2023-02-24T20:30:00.500Z,0
2023-02-24T20:35:00.651Z,0
2023-02-24T20:40:00.769Z,0
2023-02-24T20:45:00.467Z,0
2023-02-24T20:50:00.599Z,0
2023-02-24T20:55:00.507Z,0
2023-02-24T21:00:03.748Z,0
2023-02-24T21:05:00.675Z,0
2023-02-24T21:10:00.422Z,0
2023-02-24T21:15:00.655Z,0
2023-02-24T21:20:00.343Z,0
2023-02-24T21:25:00.676Z,0
2023-02-24T21:30:00.847Z,0
2023-02-24T21:35:00.888Z,0
2023-02-24T21:40:00.429Z,0
2023-02-24T21:45:00.758Z,0
2023-02-24T21:50:00.674Z,0
2023-02-24T21:55:00.405Z,0
2023-02-24T22:00:00.251Z,0
2023-02-24T22:05:00.142Z,0
2023-02-24T22:10:00.569Z,0
2023-02-24T22:15:00.385Z,0
2023-02-24T22:20:00.401Z,0
2023-02-24T22:25:00.422Z,0
2023-02-24T22:30:00.258Z,0
2023-02-24T22:35:00.194Z,0
2023-02-24T22:40:00.153Z,0
2023-02-24T22:45:00.542Z,0
2023-02-24T22:50:00.309Z,0
2023-02-24T22:55:00.369Z,0
2023-02-24T23:00:00.356Z,0
2023-02-24T23:05:00.312Z,0
2023-02-24T23:10:00.429Z,0
2023-02-24T23:15:00.136Z,0
2023-02-24T23:20:00.162Z,0
2023-02-24T23:25:00.328Z,0
2023-02-24T23:30:00.148Z,0
2023-02-24T23:35:00.847Z,0
2023-02-24T23:40:00.348Z,0
2023-02-24T23:45:00.219Z,0
2023-02-24T23:50:00.334Z,0
2023-02-24T23:55:00.438Z,0
